Time;durP1;ratioP1;P1;durP2;ratioP2;P2;SDS_P1;SDS_P2;PMS_P1;PMS_P2;Temp;Humidity;BMP_temperature;BMP_pressure;BME280_temperature;BME280_humidity;BME280_pressure;Samples;Min_cycle;Max_cycle;Signal;HPM_P1;HPM_P2
2023/06/28 00:01:06;;;;;;;3.47;1.30;;;18.00;99.40;;;;;;5025346;28;20044;-41
2023/06/28 00:03:32;;;;;;;2.47;1.38;;;18.00;99.50;;;;;;5026701;28;20468;-42
2023/06/28 00:05:57;;;;;;;3.42;1.65;;;17.90;99.60;;;;;;5026593;28;20074;-43
2023/06/28 00:08:23;;;;;;;2.95;1.38;;;18.00;99.80;;;;;;5025901;28;20045;-43
2023/06/28 00:10:52;;;;;;;4.00;1.60;;;18.00;99.90;;;;;;5025894;28;20025;-42
2023/06/28 00:13:18;;;;;;;2.70;1.60;;;18.00;99.90;;;;;;5025766;28;20029;-43
2023/06/28 00:15:45;;;;;;;3.67;1.58;;;18.00;99.90;;;;;;5026142;28;20622;-43
2023/06/28 00:18:10;;;;;;;1.92;1.30;;;18.00;99.90;;;;;;5026342;28;20033;-43
2023/06/28 00:20:40;;;;;;;3.10;1.58;;;18.10;99.90;;;;;;5026172;28;20017;-43
2023/06/28 00:23:09;;;;;;;3.80;1.35;;;18.10;99.90;;;;;;5025813;28;20129;-42
2023/06/28 00:25:36;;;;;;;3.60;1.67;;;18.00;99.90;;;;;;5026399;28;20068;-41
2023/06/28 00:28:01;;;;;;;3.13;1.63;;;18.00;99.90;;;;;;5026093;28;20053;-41
2023/06/28 00:30:27;;;;;;;2.40;1.20;;;18.00;99.90;;;;;;5026602;28;20057;-42
2023/06/28 00:32:52;;;;;;;3.10;1.63;;;18.00;99.90;;;;;;5026268;28;20025;-42
2023/06/28 00:35:18;;;;;;;3.08;1.50;;;18.00;99.90;;;;;;5025111;28;20021;-41
2023/06/28 00:37:46;;;;;;;3.00;1.40;;;17.90;99.90;;;;;;5025660;28;20026;-41
2023/06/28 00:40:12;;;;;;;4.32;1.42;;;17.90;99.90;;;;;;5025859;28;20025;-42
2023/06/28 00:42:37;;;;;;;3.35;1.40;;;17.90;99.90;;;;;;5024842;28;20056;-42
2023/06/28 00:45:07;;;;;;;2.30;1.45;;;17.90;99.90;;;;;;5025815;28;20021;-42
2023/06/28 00:47:35;;;;;;;3.45;1.33;;;17.90;99.90;;;;;;5025251;28;20021;-42
2023/06/28 00:50:03;;;;;;;4.07;1.40;;;17.90;99.90;;;;;;5024655;28;20037;-41
2023/06/28 00:52:38;;;;;;;3.03;1.38;;;17.90;99.90;;;;;;5025747;28;20063;-42
2023/06/28 00:55:04;;;;;;;3.83;1.40;;;17.90;99.90;;;;;;5025827;28;20040;-42
2023/06/28 00:57:34;;;;;;;3.05;1.30;;;18.00;99.90;;;;;;5024620;28;20535;-42
2023/06/28 01:00:00;;;;;;;3.58;1.38;;;18.00;99.90;;;;;;5025675;28;20037;-42
2023/06/28 01:02:26;;;;;;;3.45;1.63;;;18.00;99.90;;;;;;5025037;28;20037;-41
2023/06/28 01:04:57;;;;;;;3.42;1.58;;;18.00;99.90;;;;;;5024486;28;20052;-42
2023/06/28 01:07:23;;;;;;;3.80;1.35;;;18.10;99.90;;;;;;5024868;28;20148;-43
2023/06/28 01:09:48;;;;;;;3.05;1.50;;;18.10;99.90;;;;;;5024479;28;20504;-42
2023/06/28 01:12:14;;;;;;;2.97;1.48;;;18.10;99.90;;;;;;5024290;28;20029;-42
2023/06/28 01:14:40;;;;;;;3.03;1.58;;;18.10;99.90;;;;;;5025067;28;20022;-42
2023/06/28 01:17:05;;;;;;;2.22;1.38;;;18.10;99.90;;;;;;5024429;28;20021;-42
2023/06/28 01:19:32;;;;;;;3.08;1.55;;;18.10;99.90;;;;;;5024689;28;20022;-41
2023/06/28 01:22:02;;;;;;;3.22;1.75;;;18.20;99.90;;;;;;5025186;28;20035;-42
2023/06/28 01:24:28;;;;;;;2.70;1.48;;;18.20;99.90;;;;;;5023627;28;20018;-42
2023/06/28 01:26:58;;;;;;;2.72;1.60;;;18.20;99.90;;;;;;5024867;28;20442;-42
2023/06/28 01:29:24;;;;;;;3.53;1.83;;;18.20;99.90;;;;;;5024661;28;20989;-41
2023/06/28 01:31:52;;;;;;;2.17;1.48;;;18.20;99.90;;;;;;5004322;28;20121;-42
2023/06/28 01:34:18;;;;;;;4.32;1.40;;;18.20;99.90;;;;;;5019058;28;20025;-43
2023/06/28 01:36:46;;;;;;;1.80;1.10;;;18.20;99.90;;;;;;5024595;28;20036;-43
2023/06/28 01:39:12;;;;;;;2.47;1.33;;;18.10;99.90;;;;;;5023502;28;20095;-41
2023/06/28 01:41:39;;;;;;;2.72;1.08;;;18.00;99.90;;;;;;5024835;28;20036;-42
2023/06/28 01:44:05;;;;;;;2.70;1.30;;;17.90;99.90;;;;;;5023855;28;20104;-43
2023/06/28 01:46:34;;;;;;;2.75;1.33;;;17.90;99.90;;;;;;5023994;28;20515;-42
2023/06/28 01:49:00;;;;;;;2.05;1.20;;;17.90;99.90;;;;;;5024217;28;20124;-42
2023/06/28 01:51:26;;;;;;;1.75;1.40;;;17.90;99.90;;;;;;5024884;28;20021;-42
2023/06/28 01:53:51;;;;;;;2.70;1.70;;;17.90;99.90;;;;;;5023823;28;20035;-41
2023/06/28 01:56:17;;;;;;;2.70;1.25;;;17.80;99.90;;;;;;5023717;28;20414;-41
2023/06/28 01:58:42;;;;;;;3.03;2.10;;;17.80;99.90;;;;;;5024041;28;20107;-42
2023/06/28 02:01:08;;;;;;;4.28;1.70;;;17.80;99.90;;;;;;5023104;28;20025;-41
2023/06/28 02:03:33;;;;;;;2.70;1.63;;;17.90;99.90;;;;;;5024374;28;20037;-42
2023/06/28 02:05:59;;;;;;;2.70;1.40;;;17.90;99.90;;;;;;5023939;28;20022;-43
2023/06/28 02:08:25;;;;;;;5.45;1.67;;;18.00;99.90;;;;;;5024168;28;20080;-42
2023/06/28 02:10:50;;;;;;;3.53;1.55;;;18.00;99.90;;;;;;5023768;28;20025;-43
2023/06/28 02:13:16;;;;;;;1.90;1.65;;;18.10;99.90;;;;;;5024066;28;20415;-43
2023/06/28 02:15:41;;;;;;;2.85;1.70;;;18.10;99.90;;;;;;5024245;28;20489;-42
2023/06/28 02:18:07;;;;;;;4.00;1.83;;;18.10;99.90;;;;;;5023687;28;20037;-42
2023/06/28 02:20:33;;;;;;;5.18;1.85;;;18.10;99.90;;;;;;5023207;28;20029;-42
2023/06/28 02:22:58;;;;;;;4.07;2.17;;;18.10;99.90;;;;;;5024192;28;20048;-41
2023/06/28 02:25:24;;;;;;;2.65;1.65;;;18.10;99.90;;;;;;5028908;28;20025;-42
2023/06/28 02:27:49;;;;;;;3.70;1.60;;;18.10;99.90;;;;;;5029668;28;20479;-42
2023/06/28 02:30:18;;;;;;;4.60;1.80;;;18.10;99.90;;;;;;5030651;28;20029;-42
2023/06/28 02:32:44;;;;;;;3.00;1.90;;;18.10;99.90;;;;;;5030739;28;20025;-42
2023/06/28 02:35:10;;;;;;;2.75;1.50;;;18.10;99.90;;;;;;5029875;28;20370;-42
2023/06/28 02:37:35;;;;;;;3.22;1.60;;;18.10;99.90;;;;;;5030360;28;20031;-42
2023/06/28 02:40:09;;;;;;;2.92;1.40;;;18.10;99.90;;;;;;5030676;28;20036;-42
2023/06/28 02:42:35;;;;;;;2.88;1.38;;;18.10;99.90;;;;;;5030167;28;20029;-42
2023/06/28 02:45:00;;;;;;;3.45;1.75;;;18.10;99.90;;;;;;5030330;28;20036;-42
2023/06/28 02:47:26;;;;;;;2.65;1.42;;;18.10;99.90;;;;;;5029879;28;20075;-42
2023/06/28 02:49:51;;;;;;;3.53;1.25;;;18.10;99.90;;;;;;5029246;28;20477;-42
2023/06/28 02:52:17;;;;;;;3.22;1.50;;;18.00;99.90;;;;;;5030472;28;20021;-42
2023/06/28 02:54:42;;;;;;;2.85;1.33;;;18.00;99.90;;;;;;5030424;28;20027;-41
2023/06/28 02:57:08;;;;;;;4.55;1.65;;;17.90;99.90;;;;;;5029357;28;20061;-41
2023/06/28 02:59:33;;;;;;;2.13;1.45;;;18.00;99.90;;;;;;5031206;28;20029;-42
2023/06/28 03:01:59;;;;;;;3.38;1.38;;;17.90;99.90;;;;;;5030240;28;20121;-41
2023/06/28 03:04:27;;;;;;;3.20;1.40;;;18.00;99.90;;;;;;5029582;28;20530;-42
2023/06/28 03:06:53;;;;;;;1.67;1.42;;;18.00;99.90;;;;;;5030336;28;20478;-42
2023/06/28 03:09:20;;;;;;;2.33;1.20;;;17.90;99.90;;;;;;5029271;28;20033;-41
2023/06/28 03:11:46;;;;;;;1.58;1.20;;;17.90;99.90;;;;;;5030235;28;20032;-42
2023/06/28 03:14:12;;;;;;;1.45;0.90;;;17.90;99.90;;;;;;5029928;28;20029;-42
2023/06/28 03:16:37;;;;;;;2.42;1.30;;;17.80;99.90;;;;;;5029954;28;20507;-42
2023/06/28 03:19:05;;;;;;;1.45;0.90;;;17.80;99.90;;;;;;5030573;28;20099;-42
2023/06/28 03:21:31;;;;;;;2.63;1.40;;;17.80;99.90;;;;;;5030126;28;20740;-43
2023/06/28 03:23:56;;;;;;;1.00;0.90;;;17.80;99.90;;;;;;5029592;28;20070;-41
2023/06/28 03:26:23;;;;;;;3.22;1.10;;;17.80;99.90;;;;;;5030386;28;20526;-42
2023/06/28 03:28:48;;;;;;;2.13;1.10;;;17.70;99.90;;;;;;5030391;28;20041;-42
2023/06/28 03:31:17;;;;;;;2.28;1.20;;;17.80;99.90;;;;;;5029964;28;20082;-42
2023/06/28 03:33:42;;;;;;;1.85;1.10;;;17.80;99.90;;;;;;5030012;28;20033;-42
2023/06/28 03:36:08;;;;;;;1.33;0.90;;;17.80;99.90;;;;;;5028543;28;20033;-42
2023/06/28 03:38:33;;;;;;;2.38;1.15;;;17.70;99.90;;;;;;5026763;28;20022;-42
2023/06/28 03:40:59;;;;;;;2.38;1.20;;;17.70;99.90;;;;;;5027511;28;20022;-41
2023/06/28 03:43:25;;;;;;;1.33;1.00;;;17.70;99.90;;;;;;5027104;28;20022;-42
2023/06/28 03:45:50;;;;;;;2.22;1.20;;;17.70;99.90;;;;;;5026754;28;20048;-42
2023/06/28 03:48:18;;;;;;;4.97;1.20;;;17.60;99.90;;;;;;5026414;28;20428;-43
2023/06/28 03:50:43;;;;;;;1.73;0.90;;;17.60;99.90;;;;;;5027183;28;20025;-43
2023/06/28 03:53:09;;;;;;;2.78;1.50;;;17.60;99.90;;;;;;5025768;28;20091;-43
2023/06/28 03:55:41;;;;;;;1.90;1.38;;;17.60;99.90;;;;;;5026411;28;20048;-42
2023/06/28 03:58:06;;;;;;;2.47;1.58;;;17.60;99.90;;;;;;5026039;28;20032;-42
2023/06/28 04:00:32;;;;;;;3.22;1.48;;;17.60;99.90;;;;;;5025786;28;20029;-42
2023/06/28 04:02:57;;;;;;;3.40;1.30;;;17.60;99.90;;;;;;5025930;28;20022;-42
2023/06/28 04:05:26;;;;;;;2.65;1.40;;;17.70;99.90;;;;;;5025545;28;20452;-43
2023/06/28 04:07:57;;;;;;;2.83;1.40;;;17.60;99.90;;;;;;5026264;28;20586;-42
2023/06/28 04:10:24;;;;;;;3.35;1.70;;;17.60;99.90;;;;;;5022923;28;20032;-41
2023/06/28 04:12:49;;;;;;;2.13;1.50;;;17.70;99.90;;;;;;5025968;28;20037;-42
2023/06/28 04:15:15;;;;;;;3.15;1.58;;;17.70;99.90;;;;;;5025404;28;20025;-42
2023/06/28 04:17:40;;;;;;;2.85;1.63;;;17.60;99.90;;;;;;5026259;28;20026;-42
2023/06/28 04:20:07;;;;;;;1.67;1.13;;;17.60;99.90;;;;;;5025159;28;20021;-42
2023/06/28 04:22:35;;;;;;;2.42;1.75;;;17.60;99.90;;;;;;5006206;28;20030;-42
2023/06/28 04:25:02;;;;;;;1.70;1.38;;;17.60;99.90;;;;;;5021167;28;20071;-42
2023/06/28 04:27:30;;;;;;;3.00;1.30;;;17.60;99.90;;;;;;5024977;28;20028;-41
2023/06/28 04:29:56;;;;;;;2.55;1.33;;;17.60;99.90;;;;;;5025844;28;20081;-42
2023/06/28 04:32:26;;;;;;;3.03;1.55;;;17.60;99.90;;;;;;5025399;28;20025;-41
2023/06/28 04:34:56;;;;;;;2.25;1.40;;;17.60;99.90;;;;;;5025151;28;20022;-42
2023/06/28 04:37:22;;;;;;;2.88;1.63;;;17.50;99.90;;;;;;5025283;28;20808;-42
2023/06/28 04:39:48;;;;;;;2.05;1.60;;;17.50;99.90;;;;;;5025131;28;20107;-42
2023/06/28 04:42:14;;;;;;;3.00;1.83;;;17.60;99.90;;;;;;5025004;28;20095;-42
2023/06/28 04:44:49;;;;;;;2.97;1.38;;;17.60;99.90;;;;;;5025364;28;20025;-42
2023/06/28 04:47:16;;;;;;;3.45;1.67;;;17.60;99.90;;;;;;5024928;28;20029;-42
2023/06/28 04:49:48;;;;;;;5.15;1.38;;;17.60;99.90;;;;;;5025034;28;20104;-42
2023/06/28 04:52:15;;;;;;;3.78;1.60;;;17.60;99.90;;;;;;5014561;28;20034;-42
2023/06/28 04:54:41;;;;;;;3.53;1.70;;;17.60;99.90;;;;;;5024747;28;20034;-41
2023/06/28 04:57:07;;;;;;;3.13;1.95;;;17.50;99.90;;;;;;5025672;28;20041;-42
2023/06/28 04:59:34;;;;;;;3.65;1.75;;;17.50;99.90;;;;;;5025569;28;20055;-42
2023/06/28 05:02:03;;;;;;;3.58;1.85;;;17.50;99.90;;;;;;5025017;28;20022;-41
2023/06/28 05:04:29;;;;;;;2.97;1.88;;;17.50;99.90;;;;;;5025525;28;20033;-42
2023/06/28 05:06:54;;;;;;;2.50;1.70;;;17.50;99.90;;;;;;5024580;28;20152;-42
2023/06/28 05:09:20;;;;;;;4.38;1.63;;;17.40;99.90;;;;;;5023807;28;20057;-42
2023/06/28 05:11:45;;;;;;;2.50;1.75;;;17.40;99.90;;;;;;5025132;28;20037;-42
2023/06/28 05:14:11;;;;;;;2.65;1.60;;;17.40;99.90;;;;;;5024980;28;20057;-42
2023/06/28 05:16:37;;;;;;;4.57;1.70;;;17.40;99.90;;;;;;5024185;28;20734;-42
2023/06/28 05:19:02;;;;;;;3.63;2.00;;;17.50;99.90;;;;;;5025896;28;20031;-42
2023/06/28 05:21:28;;;;;;;3.30;1.75;;;17.40;99.90;;;;;;5024815;28;20064;-42
2023/06/28 05:23:53;;;;;;;3.50;1.80;;;17.40;99.90;;;;;;5024599;28;20043;-43
2023/06/28 05:26:19;;;;;;;3.22;1.90;;;17.50;99.90;;;;;;5024766;28;20033;-43
2023/06/28 05:28:44;;;;;;;3.15;1.80;;;17.50;99.90;;;;;;5024715;28;20029;-43
2023/06/28 05:31:10;;;;;;;3.78;1.70;;;17.50;99.90;;;;;;5022462;28;20060;-42
2023/06/28 05:33:40;;;;;;;2.28;1.80;;;17.50;99.90;;;;;;5013354;28;20088;-42
2023/06/28 05:36:09;;;;;;;3.83;2.03;;;17.50;99.90;;;;;;5039308;28;20021;-43
2023/06/28 05:38:34;;;;;;;4.13;2.17;;;17.60;99.90;;;;;;5023475;28;20484;-42
2023/06/28 05:41:14;;;;;;;3.95;2.35;;;17.50;99.90;;;;;;5024002;28;20029;-42
2023/06/28 05:43:42;;;;;;;4.28;2.50;;;17.50;99.90;;;;;;5021824;28;20040;-43
2023/06/28 05:46:08;;;;;;;5.30;2.60;;;17.50;99.90;;;;;;5022395;28;20032;-42
2023/06/28 05:48:33;;;;;;;5.03;2.42;;;17.50;99.90;;;;;;5024066;28;20389;-42
2023/06/28 05:50:59;;;;;;;3.47;2.20;;;17.40;99.90;;;;;;5023919;28;20029;-43
2023/06/28 05:53:25;;;;;;;2.95;2.15;;;17.40;99.90;;;;;;5022642;28;20048;-42
2023/06/28 05:55:50;;;;;;;3.38;2.20;;;17.40;99.90;;;;;;5023188;28;20050;-43
2023/06/28 05:58:16;;;;;;;2.67;1.77;;;17.50;99.90;;;;;;5022533;28;20663;-42
2023/06/28 06:00:45;;;;;;;3.20;1.80;;;17.50;99.90;;;;;;5023426;28;20115;-43
2023/06/28 06:03:10;;;;;;;3.60;2.10;;;17.50;99.90;;;;;;5022781;28;20439;-43
2023/06/28 06:05:37;;;;;;;4.60;2.25;;;17.50;99.90;;;;;;5022923;28;20029;-41
2023/06/28 06:08:04;;;;;;;3.97;2.38;;;17.50;99.90;;;;;;5023517;28;20064;-41
2023/06/28 06:10:30;;;;;;;3.83;2.00;;;17.50;99.90;;;;;;5024184;28;20037;-41
2023/06/28 06:12:56;;;;;;;2.90;2.47;;;17.50;99.90;;;;;;5023238;28;20063;-42
2023/06/28 06:15:21;;;;;;;2.80;2.30;;;17.50;99.90;;;;;;5023376;28;20032;-41
2023/06/28 06:17:47;;;;;;;3.92;2.40;;;17.50;99.90;;;;;;5023401;28;20025;-42
2023/06/28 06:20:16;;;;;;;2.80;2.30;;;17.50;99.90;;;;;;5023100;28;20025;-42
2023/06/28 06:22:42;;;;;;;3.97;2.20;;;17.60;99.90;;;;;;5023248;28;20029;-42
2023/06/28 06:25:08;;;;;;;4.40;2.20;;;17.50;99.90;;;;;;5023370;28;20359;-42
2023/06/28 06:27:34;;;;;;;4.55;2.67;;;17.50;99.90;;;;;;5022160;28;20037;-43
2023/06/28 06:30:01;;;;;;;6.40;3.60;;;17.50;99.90;;;;;;5023587;28;20036;-43
2023/06/28 06:32:27;;;;;;;7.28;3.17;;;17.50;99.90;;;;;;5023037;28;20067;-42
2023/06/28 06:34:53;;;;;;;4.15;3.33;;;17.40;99.90;;;;;;5022488;28;20029;-41
2023/06/28 06:37:20;;;;;;;5.70;2.70;;;17.30;99.90;;;;;;5023090;28;20030;-42
2023/06/28 06:39:45;;;;;;;4.28;3.03;;;17.30;99.90;;;;;;5023666;28;20099;-42
2023/06/28 06:42:11;;;;;;;5.50;2.97;;;17.30;99.90;;;;;;5002679;28;20038;-42
2023/06/28 06:44:37;;;;;;;4.45;2.90;;;17.30;99.90;;;;;;5017327;28;20048;-41
2023/06/28 06:47:06;;;;;;;3.50;2.47;;;17.30;99.90;;;;;;5023868;28;20683;-42
2023/06/28 06:49:32;;;;;;;4.13;2.55;;;17.40;99.90;;;;;;5022977;28;20049;-43
2023/06/28 06:52:00;;;;;;;6.03;2.95;;;17.40;99.90;;;;;;5024003;28;20389;-41
2023/06/28 06:54:29;;;;;;;4.00;2.42;;;17.40;99.90;;;;;;5022704;28;20152;-41
2023/06/28 06:56:55;;;;;;;5.38;2.97;;;17.50;99.90;;;;;;5024124;28;20049;-43
2023/06/28 06:59:23;;;;;;;6.43;3.00;;;17.50;99.90;;;;;;5023517;28;20034;-42
2023/06/28 07:01:49;;;;;;;5.93;2.70;;;17.50;99.90;;;;;;5022586;28;20557;-41
2023/06/28 07:04:15;;;;;;;4.95;2.83;;;17.60;99.90;;;;;;5023585;28;20500;-41
2023/06/28 07:06:42;;;;;;;4.25;2.78;;;17.60;99.90;;;;;;5022819;28;20022;-42
2023/06/28 07:09:07;;;;;;;3.78;2.88;;;17.60;99.90;;;;;;5022117;28;20033;-41
2023/06/28 07:11:33;;;;;;;4.93;3.35;;;17.70;99.90;;;;;;5026356;28;20040;-42
2023/06/28 07:13:58;;;;;;;6.38;3.28;;;17.70;99.90;;;;;;5027535;28;20043;-41
2023/06/28 07:16:24;;;;;;;6.78;3.53;;;17.80;99.90;;;;;;5025882;28;20013;-41
2023/06/28 07:18:50;;;;;;;3.55;3.08;;;17.80;99.90;;;;;;5027433;28;20048;-42
2023/06/28 07:21:16;;;;;;;4.68;2.97;;;17.90;99.90;;;;;;5026754;28;20025;-42
2023/06/28 07:23:41;;;;;;;6.03;3.33;;;17.90;99.90;;;;;;5026273;28;20026;-42
2023/06/28 07:26:07;;;;;;;5.38;3.80;;;17.90;99.90;;;;;;5027100;28;20465;-42
2023/06/28 07:28:32;;;;;;;3.85;3.35;;;17.90;99.90;;;;;;5026805;28;20064;-41
2023/06/28 07:30:59;;;;;;;4.50;3.08;;;18.00;99.90;;;;;;5026218;28;20827;-42
2023/06/28 07:33:25;;;;;;;5.40;3.63;;;18.00;99.90;;;;;;5027384;28;20190;-42
2023/06/28 07:35:52;;;;;;;3.85;3.38;;;18.00;99.90;;;;;;5026770;28;20762;-42
2023/06/28 07:38:18;;;;;;;5.90;3.70;;;18.00;99.90;;;;;;5025958;28;20163;-42
2023/06/28 07:40:47;;;;;;;4.78;3.50;;;18.00;99.90;;;;;;5027162;28;20028;-43
2023/06/28 07:43:13;;;;;;;4.00;3.40;;;18.10;99.90;;;;;;5027001;28;20037;-42
2023/06/28 07:45:40;;;;;;;3.85;3.13;;;18.10;99.90;;;;;;5026019;28;20026;-42
2023/06/28 07:48:08;;;;;;;3.70;3.08;;;18.10;99.90;;;;;;5026662;28;20381;-42
2023/06/28 07:50:35;;;;;;;4.25;3.03;;;18.20;99.90;;;;;;5025773;28;20033;-42
2023/06/28 07:53:01;;;;;;;5.00;3.10;;;18.30;99.90;;;;;;5026859;28;20037;-42
2023/06/28 07:55:28;;;;;;;4.20;3.22;;;18.30;99.90;;;;;;5026387;28;20045;-41
2023/06/28 07:57:55;;;;;;;4.82;2.95;;;18.40;99.90;;;;;;5026214;28;20025;-42
2023/06/28 08:00:20;;;;;;;4.40;3.15;;;18.50;99.90;;;;;;5026372;28;20029;-42
2023/06/28 08:02:46;;;;;;;7.72;3.47;;;18.50;99.90;;;;;;5026452;28;20025;-42
2023/06/28 08:05:12;;;;;;;5.07;3.08;;;18.50;99.90;;;;;;5025410;28;20825;-43
2023/06/28 08:07:37;;;;;;;5.25;2.53;;;18.60;99.90;;;;;;5025927;28;20029;-43
2023/06/28 08:10:03;;;;;;;3.00;2.70;;;18.60;99.90;;;;;;5026979;28;20531;-42
2023/06/28 08:12:29;;;;;;;5.00;3.03;;;18.60;99.90;;;;;;5025333;28;20152;-42
2023/06/28 08:14:54;;;;;;;5.25;2.90;;;18.70;99.90;;;;;;5026420;28;20083;-43
2023/06/28 08:17:26;;;;;;;4.95;2.80;;;18.70;99.90;;;;;;5026531;28;20087;-42
2023/06/28 08:19:54;;;;;;;4.10;2.85;;;18.70;99.90;;;;;;5024881;28;20127;-43
2023/06/28 08:22:20;;;;;;;7.75;3.10;;;18.80;99.90;;;;;;5025201;28;20112;-41
2023/06/28 08:24:46;;;;;;;4.20;3.05;;;18.80;99.90;;;;;;5025907;28;20044;-42
2023/06/28 08:27:14;;;;;;;6.05;3.10;;;18.90;99.90;;;;;;5024751;28;20055;-43
2023/06/28 08:29:40;;;;;;;3.50;2.72;;;18.90;99.90;;;;;;5025383;28;20658;-42
2023/06/28 08:32:06;;;;;;;4.75;2.60;;;18.90;99.90;;;;;;5025764;28;20164;-43
2023/06/28 08:34:41;;;;;;;5.03;3.10;;;18.90;99.90;;;;;;5024943;28;20822;-42
2023/06/28 08:37:07;;;;;;;3.83;2.70;;;18.90;99.90;;;;;;5025744;28;20109;-42
2023/06/28 08:39:32;;;;;;;4.90;3.00;;;18.90;99.90;;;;;;5025647;28;20035;-41
2023/06/28 08:42:00;;;;;;;3.67;2.55;;;18.90;99.90;;;;;;5025066;28;20021;-43
2023/06/28 08:44:29;;;;;;;6.15;3.08;;;18.90;99.90;;;;;;5025341;28;20049;-43
2023/06/28 08:46:55;;;;;;;3.88;2.92;;;18.90;99.90;;;;;;5024946;28;20025;-43
2023/06/28 08:49:21;;;;;;;3.78;2.85;;;19.00;99.90;;;;;;5024222;28;20063;-42
2023/06/28 08:51:47;;;;;;;3.95;3.13;;;19.00;99.90;;;;;;5025791;28;20033;-43
2023/06/28 08:54:14;;;;;;;4.30;3.17;;;19.00;99.90;;;;;;5024943;28;20044;-43
2023/06/28 08:56:41;;;;;;;3.40;2.83;;;19.10;99.90;;;;;;5025176;28;20038;-43
2023/06/28 08:59:08;;;;;;;3.85;2.72;;;19.10;99.90;;;;;;5025397;28;20029;-42
2023/06/28 09:01:40;;;;;;;5.68;3.08;;;19.20;99.90;;;;;;5024553;28;20021;-43
2023/06/28 09:04:06;;;;;;;5.20;3.50;;;19.30;99.90;;;;;;5024977;28;20530;-43
2023/06/28 09:06:31;;;;;;;4.72;2.70;;;19.30;99.90;;;;;;5025054;28;20025;-42
2023/06/28 09:08:58;;;;;;;5.05;3.20;;;19.30;99.90;;;;;;5024885;28;20166;-42
2023/06/28 09:11:25;;;;;;;5.35;3.15;;;19.30;99.90;;;;;;5024864;28;20021;-42
2023/06/28 09:13:51;;;;;;;4.70;3.60;;;19.30;99.90;;;;;;5025059;28;20029;-43
2023/06/28 09:16:17;;;;;;;4.93;3.00;;;19.30;99.90;;;;;;5024942;28;20020;-42
2023/06/28 09:18:43;;;;;;;4.38;2.60;;;19.30;99.90;;;;;;5024501;28;20037;-42
2023/06/28 09:21:25;;;;;;;4.80;3.13;;;19.40;99.90;;;;;;5024807;28;20140;-42
2023/06/28 09:23:50;;;;;;;5.68;2.70;;;19.40;99.90;;;;;;5023841;28;20053;-41
2023/06/28 09:26:16;;;;;;;2.95;2.67;;;19.50;99.90;;;;;;5024968;28;20748;-42
2023/06/28 09:28:42;;;;;;;4.82;3.47;;;19.50;99.90;;;;;;5024956;28;20035;-42
2023/06/28 09:31:10;;;;;;;5.05;2.95;;;19.60;99.90;;;;;;5024111;28;20021;-42
2023/06/28 09:33:39;;;;;;;5.35;3.15;;;19.60;99.90;;;;;;5024801;28;20470;-42
2023/06/28 09:36:04;;;;;;;3.30;2.58;;;19.60;99.90;;;;;;5023277;28;20523;-43
2023/06/28 09:38:42;;;;;;;2.78;2.30;;;19.70;99.90;;;;;;5025001;28;20021;-42
2023/06/28 09:41:08;;;;;;;3.92;3.08;;;19.70;99.90;;;;;;5024319;28;20119;-42
2023/06/28 09:43:35;;;;;;;5.93;3.55;;;19.80;99.90;;;;;;5023570;28;20136;-42
2023/06/28 09:46:15;;;;;;;6.07;3.08;;;19.80;99.90;;;;;;5025113;28;20029;-42
2023/06/28 09:48:48;;;;;;;6.53;3.40;;;19.80;99.90;;;;;;5024521;28;20076;-45
2023/06/28 09:51:17;;;;;;;4.03;3.00;;;19.70;99.90;;;;;;5024064;28;20025;-42
2023/06/28 09:54:09;;;;;;;5.65;3.20;;;19.70;99.90;;;;;;5024414;28;20033;-42
2023/06/28 09:56:38;;;;;;;4.28;3.10;;;19.60;99.90;;;;;;5022556;28;20049;-42
2023/06/28 09:59:08;;;;;;;4.95;3.60;;;19.60;99.90;;;;;;5023656;28;20037;-42
2023/06/28 10:01:39;;;;;;;7.22;4.35;;;19.60;99.90;;;;;;5023877;28;20029;-41
2023/06/28 10:04:08;;;;;;;5.65;3.78;;;19.60;99.90;;;;;;5024180;28;20025;-42
2023/06/28 10:06:37;;;;;;;5.30;3.30;;;19.60;99.90;;;;;;5024233;28;20037;-42
2023/06/28 10:09:03;;;;;;;6.55;3.80;;;19.60;99.90;;;;;;5024443;28;20508;-41
2023/06/28 10:11:31;;;;;;;5.57;3.30;;;19.60;99.90;;;;;;5023192;28;20025;-41
2023/06/28 10:13:58;;;;;;;3.92;3.30;;;19.70;99.90;;;;;;5024487;28;20511;-42
2023/06/28 10:16:31;;;;;;;6.68;3.40;;;19.80;99.90;;;;;;5024008;28;20032;-41
2023/06/28 10:18:58;;;;;;;6.40;3.42;;;19.90;99.90;;;;;;5024043;28;20033;-42
2023/06/28 10:21:24;;;;;;;4.32;3.28;;;20.00;99.90;;;;;;5023647;28;20021;-42
2023/06/28 10:23:51;;;;;;;4.65;3.30;;;20.00;99.90;;;;;;5024051;28;20211;-43
2023/06/28 10:26:19;;;;;;;6.35;3.40;;;20.10;99.90;;;;;;5021077;28;20032;-42
2023/06/28 10:28:45;;;;;;;5.55;3.25;;;20.30;99.90;;;;;;5023400;28;20064;-42
2023/06/28 10:31:12;;;;;;;5.53;3.60;;;20.40;99.90;;;;;;5023350;28;20099;-41
2023/06/28 10:33:41;;;;;;;6.53;4.35;;;20.50;99.90;;;;;;5022708;28;20033;-42
2023/06/28 10:36:07;;;;;;;6.15;3.80;;;20.60;99.90;;;;;;5023379;28;20022;-42
2023/06/28 10:38:37;;;;;;;5.72;3.45;;;20.70;99.90;;;;;;5023671;28;20048;-43
2023/06/28 10:41:03;;;;;;;6.30;3.80;;;20.80;99.90;;;;;;5022800;28;20021;-42
2023/06/28 10:43:32;;;;;;;4.15;3.50;;;20.90;99.90;;;;;;5023275;28;20465;-42
2023/06/28 10:45:57;;;;;;;7.03;4.50;;;21.00;99.90;;;;;;5025148;28;20025;-42
2023/06/28 10:48:26;;;;;;;7.53;4.70;;;21.30;99.90;;;;;;5026278;28;20035;-42
2023/06/28 10:50:56;;;;;;;5.25;2.92;;;21.40;99.90;;;;;;5027163;28;20029;-43
2023/06/28 10:53:27;;;;;;;5.28;3.22;;;21.60;99.90;;;;;;5026323;28;20045;-43
2023/06/28 10:56:22;;;;;;;5.93;3.47;;;21.90;99.90;;;;;;5026998;28;20041;-43
2023/06/28 10:58:54;;;;;;;6.15;3.67;;;22.10;99.90;;;;;;5026070;28;20034;-43
2023/06/28 11:01:51;;;;;;;4.15;3.13;;;22.20;99.90;;;;;;5026498;28;20179;-42
2023/06/28 11:04:18;;;;;;;4.90;3.85;;;22.30;99.90;;;;;;5027108;28;20065;-43
2023/06/28 11:06:45;;;;;;;6.95;4.03;;;22.40;99.90;;;;;;5027587;28;20029;-43
2023/06/28 11:09:19;;;;;;;5.32;3.00;;;22.50;99.90;;;;;;5026342;28;20053;-42
2023/06/28 11:11:59;;;;;;;4.72;3.75;;;22.70;99.90;;;;;;5027065;28;20013;-41
2023/06/28 11:14:26;;;;;;;5.05;3.78;;;22.80;99.90;;;;;;5025986;28;20087;-43
2023/06/28 11:16:53;;;;;;;6.55;4.15;;;22.90;99.90;;;;;;5027227;28;20102;-42
2023/06/28 11:19:27;;;;;;;6.68;3.88;;;23.00;99.90;;;;;;5027341;28;20466;-43
2023/06/28 11:22:00;;;;;;;4.85;3.95;;;23.00;99.90;;;;;;5026651;28;20029;-43
2023/06/28 11:24:29;;;;;;;5.78;4.28;;;23.10;99.90;;;;;;5027346;28;20116;-42
2023/06/28 11:26:55;;;;;;;6.53;3.65;;;23.20;99.90;;;;;;5027389;28;20036;-42
2023/06/28 11:29:21;;;;;;;4.07;2.85;;;23.30;99.90;;;;;;5026172;28;20099;-42
2023/06/28 11:31:51;;;;;;;6.40;4.30;;;23.30;99.90;;;;;;5027328;28;20029;-42
2023/06/28 11:34:18;;;;;;;5.22;3.65;;;23.40;99.90;;;;;;5026613;28;20038;-43
2023/06/28 11:36:44;;;;;;;5.80;3.53;;;23.50;99.90;;;;;;5026452;28;20358;-43
2023/06/28 11:39:17;;;;;;;6.15;3.50;;;23.60;99.90;;;;;;5027288;28;20022;-43
2023/06/28 11:41:44;;;;;;;5.97;3.38;;;23.70;99.90;;;;;;5026911;28;20025;-44
2023/06/28 11:44:11;;;;;;;7.10;3.90;;;23.80;99.90;;;;;;5025871;28;20029;-43
2023/06/28 11:46:37;;;;;;;4.18;3.25;;;23.80;99.90;;;;;;5026552;28;20534;-42
2023/06/28 11:49:07;;;;;;;4.00;3.40;;;23.90;99.90;;;;;;5026846;28;20044;-42
2023/06/28 11:51:35;;;;;;;5.88;3.92;;;23.80;99.90;;;;;;5025700;28;20076;-42
2023/06/28 11:54:04;;;;;;;7.85;3.60;;;23.70;99.90;;;;;;5027154;28;20028;-42
2023/06/28 11:56:41;;;;;;;4.55;3.72;;;23.70;99.90;;;;;;5026087;28;20064;-42
2023/06/28 11:59:17;;;;;;;6.38;4.15;;;23.60;99.90;;;;;;5026606;28;20052;-42
2023/06/28 12:01:44;;;;;;;4.53;3.90;;;23.50;99.90;;;;;;5027014;28;20496;-41
2023/06/28 12:04:20;;;;;;;5.10;3.65;;;23.50;99.90;;;;;;5026763;28;20074;-42
2023/06/28 12:06:46;;;;;;;7.18;4.00;;;23.50;99.90;;;;;;5016323;28;20025;-42
2023/06/28 12:09:27;;;;;;;4.22;3.58;;;23.60;99.90;;;;;;5026427;28;20029;-42
2023/06/28 12:12:02;;;;;;;6.50;3.75;;;23.70;99.90;;;;;;5014816;28;20029;-42
2023/06/28 12:14:30;;;;;;;7.10;4.00;;;23.70;99.90;;;;;;5026216;28;20017;-43
2023/06/28 12:16:57;;;;;;;5.57;4.18;;;23.80;99.90;;;;;;5026434;28;20040;-42
2023/06/28 12:19:27;;;;;;;4.45;3.80;;;23.80;99.90;;;;;;5026310;28;20032;-42
2023/06/28 12:21:54;;;;;;;5.55;3.50;;;23.90;99.90;;;;;;5025943;28;20021;-42
2023/06/28 12:24:24;;;;;;;7.68;4.38;;;23.90;99.90;;;;;;5025645;28;20033;-43
2023/06/28 12:26:58;;;;;;;6.65;3.80;;;24.00;99.90;;;;;;5024221;28;20025;-43
2023/06/28 12:29:26;;;;;;;4.88;3.80;;;24.00;99.90;;;;;;5026242;28;20071;-43
2023/06/28 12:31:54;;;;;;;5.43;3.97;;;24.10;99.90;;;;;;5024837;28;20024;-43
2023/06/28 12:34:26;;;;;;;5.93;4.57;;;24.10;99.90;;;;;;5025477;28;20064;-43
2023/06/28 12:36:53;;;;;;;;;;;24.30;99.90;;;;;;5026067;28;20026;-42
2023/06/28 12:39:27;;;;;;;7.13;4.50;;;24.30;99.90;;;;;;5025598;28;20342;-41
2023/06/28 12:42:10;;;;;;;6.57;4.30;;;24.40;99.90;;;;;;5025484;28;20582;-42
2023/06/28 12:44:52;;;;;;;6.47;3.97;;;24.40;99.90;;;;;;5025386;28;20021;-42
2023/06/28 12:47:19;;;;;;;5.53;4.10;;;24.30;99.90;;;;;;5024893;28;20017;-42
2023/06/28 12:49:46;;;;;;;5.57;4.20;;;24.40;99.90;;;;;;5025632;28;20041;-42